sensor_id;sensor_type;location;lat;lon;timestamp;P1;durP1;ratioP1;P2;durP2;ratioP2
45905;SDS011;31619;49.008;12.106;2023-03-21T00:00:42;6.18;;;5.57;;
45905;SDS011;31619;49.008;12.106;2023-03-21T00:03:07;6.30;;;5.65;;
45905;SDS011;31619;49.008;12.106;2023-03-21T00:05:34;6.13;;;5.53;;
45905;SDS011;31619;49.008;12.106;2023-03-21T00:08:09;6.85;;;5.82;;
45905;SDS011;31619;49.008;12.106;2023-03-21T00:10:35;6.43;;;5.82;;
45905;SDS011;31619;49.008;12.106;2023-03-21T00:13:01;6.28;;;5.65;;
45905;SDS011;31619;49.008;12.106;2023-03-21T00:15:27;6.90;;;6.20;;
45905;SDS011;31619;49.008;12.106;2023-03-21T00:17:54;8.93;;;6.03;;
45905;SDS011;31619;49.008;12.106;2023-03-21T00:20:27;6.78;;;6.07;;
45905;SDS011;31619;49.008;12.106;2023-03-21T00:22:54;6.40;;;5.72;;
45905;SDS011;31619;49.008;12.106;2023-03-21T00:25:19;6.82;;;6.15;;
45905;SDS011;31619;49.008;12.106;2023-03-21T00:27:45;7.25;;;5.78;;
45905;SDS011;31619;49.008;12.106;2023-03-21T00:30:11;5.68;;;5.22;;
45905;SDS011;31619;49.008;12.106;2023-03-21T00:32:37;5.80;;;5.32;;
45905;SDS011;31619;49.008;12.106;2023-03-21T00:35:02;6.25;;;5.72;;
45905;SDS011;31619;49.008;12.106;2023-03-21T00:37:28;5.72;;;5.13;;
45905;SDS011;31619;49.008;12.106;2023-03-21T00:39:54;6.38;;;5.70;;
45905;SDS011;31619;49.008;12.106;2023-03-21T00:42:19;6.07;;;5.50;;
45905;SDS011;31619;49.008;12.106;2023-03-21T00:44:45;7.25;;;6.65;;
45905;SDS011;31619;49.008;12.106;2023-03-21T00:47:11;5.95;;;5.45;;
45905;SDS011;31619;49.008;12.106;2023-03-21T00:49:37;6.15;;;5.55;;
45905;SDS011;31619;49.008;12.106;2023-03-21T00:52:04;7.00;;;6.40;;
45905;SDS011;31619;49.008;12.106;2023-03-21T00:54:34;13.18;;;7.82;;
45905;SDS011;31619;49.008;12.106;2023-03-21T00:57:01;7.53;;;6.72;;
45905;SDS011;31619;49.008;12.106;2023-03-21T00:59:27;7.25;;;6.55;;
45905;SDS011;31619;49.008;12.106;2023-03-21T01:01:53;6.97;;;6.28;;
45905;SDS011;31619;49.008;12.106;2023-03-21T01:04:20;6.57;;;5.97;;
45905;SDS011;31619;49.008;12.106;2023-03-21T01:06:50;6.55;;;5.95;;
45905;SDS011;31619;49.008;12.106;2023-03-21T01:09:19;6.53;;;5.93;;
45905;SDS011;31619;49.008;12.106;2023-03-21T01:11:47;8.30;;;5.80;;
45905;SDS011;31619;49.008;12.106;2023-03-21T01:14:15;6.82;;;6.22;;
45905;SDS011;31619;49.008;12.106;2023-03-21T01:16:41;6.03;;;5.43;;
45905;SDS011;31619;49.008;12.106;2023-03-21T01:19:08;6.50;;;5.90;;
45905;SDS011;31619;49.008;12.106;2023-03-21T01:21:36;8.05;;;7.25;;
45905;SDS011;31619;49.008;12.106;2023-03-21T01:24:01;7.25;;;6.55;;
45905;SDS011;31619;49.008;12.106;2023-03-21T01:26:27;7.40;;;6.40;;
45905;SDS011;31619;49.008;12.106;2023-03-21T01:28:53;7.63;;;6.88;;
45905;SDS011;31619;49.008;12.106;2023-03-21T01:31:18;7.57;;;6.88;;
45905;SDS011;31619;49.008;12.106;2023-03-21T01:33:44;6.88;;;6.28;;
45905;SDS011;31619;49.008;12.106;2023-03-21T01:36:12;8.75;;;7.60;;
45905;SDS011;31619;49.008;12.106;2023-03-21T01:38:41;7.80;;;6.68;;
45905;SDS011;31619;49.008;12.106;2023-03-21T01:41:08;7.45;;;6.75;;
45905;SDS011;31619;49.008;12.106;2023-03-21T01:43:50;6.93;;;6.32;;
45905;SDS011;31619;49.008;12.106;2023-03-21T01:46:39;6.32;;;5.72;;
45905;SDS011;31619;49.008;12.106;2023-03-21T01:51:51;7.13;;;6.38;;
45905;SDS011;31619;49.008;12.106;2023-03-21T01:54:23;6.50;;;5.90;;
45905;SDS011;31619;49.008;12.106;2023-03-21T01:56:56;6.78;;;6.07;;
45905;SDS011;31619;49.008;12.106;2023-03-21T01:59:27;6.03;;;5.53;;
45905;SDS011;31619;49.008;12.106;2023-03-21T02:02:00;7.43;;;6.22;;
45905;SDS011;31619;49.008;12.106;2023-03-21T02:04:31;7.30;;;6.60;;
45905;SDS011;31619;49.008;12.106;2023-03-21T02:06:59;6.68;;;6.10;;
45905;SDS011;31619;49.008;12.106;2023-03-21T02:09:30;6.78;;;6.18;;
45905;SDS011;31619;49.008;12.106;2023-03-21T02:11:59;11.13;;;5.88;;
45905;SDS011;31619;49.008;12.106;2023-03-21T02:14:29;6.07;;;5.22;;
45905;SDS011;31619;49.008;12.106;2023-03-21T02:17:07;7.72;;;5.63;;
45905;SDS011;31619;49.008;12.106;2023-03-21T02:28:55;6.72;;;5.72;;
45905;SDS011;31619;49.008;12.106;2023-03-21T02:36:27;5.45;;;4.90;;
45905;SDS011;31619;49.008;12.106;2023-03-21T02:39:00;7.50;;;4.68;;
45905;SDS011;31619;49.008;12.106;2023-03-21T02:41:46;5.72;;;5.13;;
45905;SDS011;31619;49.008;12.106;2023-03-21T02:44:21;4.97;;;4.57;;
45905;SDS011;31619;49.008;12.106;2023-03-21T02:52:29;5.28;;;4.78;;
45905;SDS011;31619;49.008;12.106;2023-03-21T02:54:57;6.03;;;5.45;;
45905;SDS011;31619;49.008;12.106;2023-03-21T02:57:25;4.93;;;4.53;;
45905;SDS011;31619;49.008;12.106;2023-03-21T02:59:50;5.70;;;5.13;;
45905;SDS011;31619;49.008;12.106;2023-03-21T03:02:19;7.50;;;4.40;;
45905;SDS011;31619;49.008;12.106;2023-03-21T03:04:47;5.22;;;4.82;;
45905;SDS011;31619;49.008;12.106;2023-03-21T03:07:18;6.30;;;5.25;;
45905;SDS011;31619;49.008;12.106;2023-03-21T03:15:49;5.45;;;4.95;;
45905;SDS011;31619;49.008;12.106;2023-03-21T03:26:35;5.25;;;4.75;;
45905;SDS011;31619;49.008;12.106;2023-03-21T03:29:14;4.82;;;4.45;;
45905;SDS011;31619;49.008;12.106;2023-03-21T03:31:44;5.10;;;4.60;;
45905;SDS011;31619;49.008;12.106;2023-03-21T03:34:15;7.05;;;4.93;;
45905;SDS011;31619;49.008;12.106;2023-03-21T03:36:46;5.22;;;4.70;;
45905;SDS011;31619;49.008;12.106;2023-03-21T03:39:20;5.63;;;5.10;;
45905;SDS011;31619;49.008;12.106;2023-03-21T03:41:59;5.05;;;4.38;;
45905;SDS011;31619;49.008;12.106;2023-03-21T03:44:29;4.90;;;4.50;;
45905;SDS011;31619;49.008;12.106;2023-03-21T03:46:57;5.50;;;5.10;;
45905;SDS011;31619;49.008;12.106;2023-03-21T03:49:35;6.32;;;4.72;;
45905;SDS011;31619;49.008;12.106;2023-03-21T03:52:22;5.43;;;4.93;;
45905;SDS011;31619;49.008;12.106;2023-03-21T03:54:54;5.25;;;4.50;;
45905;SDS011;31619;49.008;12.106;2023-03-21T03:57:20;5.40;;;4.90;;
45905;SDS011;31619;49.008;12.106;2023-03-21T03:59:46;5.00;;;4.50;;
45905;SDS011;31619;49.008;12.106;2023-03-21T04:02:12;5.55;;;4.90;;
45905;SDS011;31619;49.008;12.106;2023-03-21T04:04:38;4.90;;;4.13;;
45905;SDS011;31619;49.008;12.106;2023-03-21T04:07:05;5.93;;;4.80;;
45905;SDS011;31619;49.008;12.106;2023-03-21T04:09:31;4.90;;;4.50;;
45905;SDS011;31619;49.008;12.106;2023-03-21T04:11:57;7.68;;;4.93;;
45905;SDS011;31619;49.008;12.106;2023-03-21T04:14:23;5.20;;;4.70;;
45905;SDS011;31619;49.008;12.106;2023-03-21T04:16:49;5.28;;;4.88;;
45905;SDS011;31619;49.008;12.106;2023-03-21T04:19:16;4.95;;;4.55;;
45905;SDS011;31619;49.008;12.106;2023-03-21T04:21:42;5.18;;;4.68;;
45905;SDS011;31619;49.008;12.106;2023-03-21T04:24:10;7.10;;;5.57;;
45905;SDS011;31619;49.008;12.106;2023-03-21T04:26:37;5.30;;;4.80;;
45905;SDS011;31619;49.008;12.106;2023-03-21T04:29:03;7.88;;;5.50;;
45905;SDS011;31619;49.008;12.106;2023-03-21T04:31:30;5.80;;;4.72;;
45905;SDS011;31619;49.008;12.106;2023-03-21T04:33:58;6.30;;;5.70;;
45905;SDS011;31619;49.008;12.106;2023-03-21T04:36:24;5.20;;;4.70;;
45905;SDS011;31619;49.008;12.106;2023-03-21T04:38:54;5.10;;;4.60;;
45905;SDS011;31619;49.008;12.106;2023-03-21T04:41:24;5.68;;;5.18;;
45905;SDS011;31619;49.008;12.106;2023-03-21T04:43:51;6.18;;;5.20;;
45905;SDS011;31619;49.008;12.106;2023-03-21T04:46:16;5.93;;;5.30;;
45905;SDS011;31619;49.008;12.106;2023-03-21T04:48:42;5.22;;;4.82;;
45905;SDS011;31619;49.008;12.106;2023-03-21T04:51:08;5.78;;;5.18;;
45905;SDS011;31619;49.008;12.106;2023-03-21T04:53:33;7.00;;;4.97;;
45905;SDS011;31619;49.008;12.106;2023-03-21T04:55:59;5.43;;;4.95;;
45905;SDS011;31619;49.008;12.106;2023-03-21T04:58:25;6.75;;;5.25;;
45905;SDS011;31619;49.008;12.106;2023-03-21T05:00:50;5.93;;;5.35;;
45905;SDS011;31619;49.008;12.106;2023-03-21T05:03:17;6.18;;;5.57;;
45905;SDS011;31619;49.008;12.106;2023-03-21T05:05:45;5.68;;;5.15;;
45905;SDS011;31619;49.008;12.106;2023-03-21T05:08:11;5.13;;;4.43;;
45905;SDS011;31619;49.008;12.106;2023-03-21T05:10:38;5.43;;;4.65;;
45905;SDS011;31619;49.008;12.106;2023-03-21T05:13:04;7.75;;;5.45;;
45905;SDS011;31619;49.008;12.106;2023-03-21T05:15:30;5.35;;;4.85;;
45905;SDS011;31619;49.008;12.106;2023-03-21T05:17:56;5.78;;;4.95;;
45905;SDS011;31619;49.008;12.106;2023-03-21T05:20:36;5.70;;;5.28;;
45905;SDS011;31619;49.008;12.106;2023-03-21T05:23:06;6.85;;;5.40;;
45905;SDS011;31619;49.008;12.106;2023-03-21T05:25:34;6.22;;;5.70;;
45905;SDS011;31619;49.008;12.106;2023-03-21T05:28:02;6.70;;;5.15;;
45905;SDS011;31619;49.008;12.106;2023-03-21T05:30:28;5.68;;;5.10;;
45905;SDS011;31619;49.008;12.106;2023-03-21T05:32:54;7.00;;;6.25;;
45905;SDS011;31619;49.008;12.106;2023-03-21T05:35:20;5.88;;;5.38;;
45905;SDS011;31619;49.008;12.106;2023-03-21T05:37:46;6.43;;;5.40;;
45905;SDS011;31619;49.008;12.106;2023-03-21T05:40:11;6.82;;;6.22;;
45905;SDS011;31619;49.008;12.106;2023-03-21T05:42:37;7.38;;;6.00;;
45905;SDS011;31619;49.008;12.106;2023-03-21T05:45:03;10.32;;;6.18;;
45905;SDS011;31619;49.008;12.106;2023-03-21T05:47:29;9.30;;;6.80;;
45905;SDS011;31619;49.008;12.106;2023-03-21T05:49:55;8.20;;;6.78;;
45905;SDS011;31619;49.008;12.106;2023-03-21T05:52:20;6.70;;;6.10;;
45905;SDS011;31619;49.008;12.106;2023-03-21T05:54:46;7.53;;;6.82;;
45905;SDS011;31619;49.008;12.106;2023-03-21T05:57:12;9.18;;;7.22;;
45905;SDS011;31619;49.008;12.106;2023-03-21T05:59:37;6.82;;;6.13;;
45905;SDS011;31619;49.008;12.106;2023-03-21T06:02:03;7.53;;;6.68;;
45905;SDS011;31619;49.008;12.106;2023-03-21T06:04:29;7.68;;;6.22;;
45905;SDS011;31619;49.008;12.106;2023-03-21T06:06:55;6.07;;;5.47;;
45905;SDS011;31619;49.008;12.106;2023-03-21T06:09:20;7.03;;;6.43;;
45905;SDS011;31619;49.008;12.106;2023-03-21T06:11:48;6.72;;;6.13;;
45905;SDS011;31619;49.008;12.106;2023-03-21T06:14:16;5.82;;;4.97;;
45905;SDS011;31619;49.008;12.106;2023-03-21T06:16:42;8.07;;;5.55;;
45905;SDS011;31619;49.008;12.106;2023-03-21T06:19:08;6.22;;;5.72;;
45905;SDS011;31619;49.008;12.106;2023-03-21T06:21:34;9.57;;;5.85;;
45905;SDS011;31619;49.008;12.106;2023-03-21T06:24:00;8.45;;;6.28;;
45905;SDS011;31619;49.008;12.106;2023-03-21T06:26:25;7.15;;;5.75;;
45905;SDS011;31619;49.008;12.106;2023-03-21T06:28:51;6.68;;;6.07;;
45905;SDS011;31619;49.008;12.106;2023-03-21T06:31:17;6.35;;;5.30;;
45905;SDS011;31619;49.008;12.106;2023-03-21T06:33:46;6.20;;;5.65;;
45905;SDS011;31619;49.008;12.106;2023-03-21T06:36:12;6.50;;;5.65;;
45905;SDS011;31619;49.008;12.106;2023-03-21T06:38:38;6.07;;;5.57;;
45905;SDS011;31619;49.008;12.106;2023-03-21T06:41:04;6.80;;;6.20;;
45905;SDS011;31619;49.008;12.106;2023-03-21T06:43:30;6.32;;;5.65;;
45905;SDS011;31619;49.008;12.106;2023-03-21T06:45:56;6.00;;;5.07;;
45905;SDS011;31619;49.008;12.106;2023-03-21T06:48:22;6.13;;;5.53;;
45905;SDS011;31619;49.008;12.106;2023-03-21T06:50:48;8.00;;;5.40;;
45905;SDS011;31619;49.008;12.106;2023-03-21T06:53:15;8.57;;;5.45;;
45905;SDS011;31619;49.008;12.106;2023-03-21T06:55:41;5.90;;;4.97;;
45905;SDS011;31619;49.008;12.106;2023-03-21T06:58:07;5.65;;;5.15;;
45905;SDS011;31619;49.008;12.106;2023-03-21T07:00:32;12.75;;;5.95;;
45905;SDS011;31619;49.008;12.106;2023-03-21T07:02:58;6.22;;;5.70;;
45905;SDS011;31619;49.008;12.106;2023-03-21T07:05:25;5.55;;;5.15;;
45905;SDS011;31619;49.008;12.106;2023-03-21T07:07:51;5.95;;;5.03;;
45905;SDS011;31619;49.008;12.106;2023-03-21T07:10:17;6.63;;;5.40;;
45905;SDS011;31619;49.008;12.106;2023-03-21T07:12:43;6.05;;;5.53;;
45905;SDS011;31619;49.008;12.106;2023-03-21T07:15:09;6.68;;;5.50;;
45905;SDS011;31619;49.008;12.106;2023-03-21T07:17:41;10.38;;;4.82;;
45905;SDS011;31619;49.008;12.106;2023-03-21T07:20:07;5.78;;;5.30;;
45905;SDS011;31619;49.008;12.106;2023-03-21T07:22:34;6.32;;;5.72;;
45905;SDS011;31619;49.008;12.106;2023-03-21T07:25:00;5.93;;;5.32;;
45905;SDS011;31619;49.008;12.106;2023-03-21T07:27:25;6.72;;;5.50;;
45905;SDS011;31619;49.008;12.106;2023-03-21T07:29:51;5.85;;;5.35;;
45905;SDS011;31619;49.008;12.106;2023-03-21T07:32:23;5.50;;;5.00;;
45905;SDS011;31619;49.008;12.106;2023-03-21T07:45:56;15.77;;;7.93;;
45905;SDS011;31619;49.008;12.106;2023-03-21T07:48:22;6.30;;;5.35;;
45905;SDS011;31619;49.008;12.106;2023-03-21T07:50:48;9.73;;;6.03;;
45905;SDS011;31619;49.008;12.106;2023-03-21T07:53:25;7.70;;;5.63;;
45905;SDS011;31619;49.008;12.106;2023-03-21T07:56:28;6.00;;;5.40;;
45905;SDS011;31619;49.008;12.106;2023-03-21T07:58:54;7.43;;;6.05;;
45905;SDS011;31619;49.008;12.106;2023-03-21T08:01:20;8.18;;;5.72;;
45905;SDS011;31619;49.008;12.106;2023-03-21T08:03:45;8.60;;;5.90;;
45905;SDS011;31619;49.008;12.106;2023-03-21T08:06:12;6.07;;;5.57;;
45905;SDS011;31619;49.008;12.106;2023-03-21T08:08:42;6.15;;;5.47;;
45905;SDS011;31619;49.008;12.106;2023-03-21T08:11:09;7.30;;;6.38;;
45905;SDS011;31619;49.008;12.106;2023-03-21T08:13:35;7.40;;;6.20;;
45905;SDS011;31619;49.008;12.106;2023-03-21T08:16:00;5.50;;;5.05;;
45905;SDS011;31619;49.008;12.106;2023-03-21T08:18:35;5.53;;;5.00;;
45905;SDS011;31619;49.008;12.106;2023-03-21T08:21:00;6.82;;;6.07;;
45905;SDS011;31619;49.008;12.106;2023-03-21T08:23:29;6.28;;;5.70;;
45905;SDS011;31619;49.008;12.106;2023-03-21T08:25:55;6.47;;;5.63;;
45905;SDS011;31619;49.008;12.106;2023-03-21T08:28:22;7.57;;;6.05;;
45905;SDS011;31619;49.008;12.106;2023-03-21T08:30:48;6.63;;;5.53;;
45905;SDS011;31619;49.008;12.106;2023-03-21T08:33:14;5.97;;;5.40;;
45905;SDS011;31619;49.008;12.106;2023-03-21T08:35:43;5.53;;;5.03;;
45905;SDS011;31619;49.008;12.106;2023-03-21T08:38:20;5.60;;;5.05;;
45905;SDS011;31619;49.008;12.106;2023-03-21T08:40:53;6.25;;;5.65;;
45905;SDS011;31619;49.008;12.106;2023-03-21T08:43:25;6.05;;;5.30;;
45905;SDS011;31619;49.008;12.106;2023-03-21T08:45:55;6.45;;;5.30;;
45905;SDS011;31619;49.008;12.106;2023-03-21T08:48:24;6.95;;;5.40;;
45905;SDS011;31619;49.008;12.106;2023-03-21T08:50:49;7.43;;;5.05;;
45905;SDS011;31619;49.008;12.106;2023-03-21T08:53:25;3.67;;;3.38;;
45905;SDS011;31619;49.008;12.106;2023-03-21T08:55:50;4.30;;;3.90;;
45905;SDS011;31619;49.008;12.106;2023-03-21T08:58:16;5.25;;;4.60;;
45905;SDS011;31619;49.008;12.106;2023-03-21T09:00:48;4.38;;;3.97;;
45905;SDS011;31619;49.008;12.106;2023-03-21T09:03:15;4.40;;;4.03;;
45905;SDS011;31619;49.008;12.106;2023-03-21T09:05:41;5.57;;;3.80;;
45905;SDS011;31619;49.008;12.106;2023-03-21T09:08:09;4.57;;;3.95;;
45905;SDS011;31619;49.008;12.106;2023-03-21T09:10:37;3.88;;;3.47;;
45905;SDS011;31619;49.008;12.106;2023-03-21T09:13:02;6.13;;;3.35;;
45905;SDS011;31619;49.008;12.106;2023-03-21T09:15:28;7.00;;;3.10;;
45905;SDS011;31619;49.008;12.106;2023-03-21T09:17:53;3.70;;;3.00;;
45905;SDS011;31619;49.008;12.106;2023-03-21T09:20:23;3.55;;;3.13;;
45905;SDS011;31619;49.008;12.106;2023-03-21T09:22:54;2.90;;;2.60;;
45905;SDS011;31619;49.008;12.106;2023-03-21T09:25:22;3.70;;;3.03;;
45905;SDS011;31619;49.008;12.106;2023-03-21T09:27:48;2.38;;;2.17;;
45905;SDS011;31619;49.008;12.106;2023-03-21T09:30:16;2.17;;;1.98;;
45905;SDS011;31619;49.008;12.106;2023-03-21T09:32:43;4.25;;;1.90;;
45905;SDS011;31619;49.008;12.106;2023-03-21T09:35:13;2.85;;;2.13;;
45905;SDS011;31619;49.008;12.106;2023-03-21T09:37:42;3.15;;;1.80;;
45905;SDS011;31619;49.008;12.106;2023-03-21T09:45:57;2.60;;;2.40;;
45905;SDS011;31619;49.008;12.106;2023-03-21T09:48:39;1.90;;;1.80;;
45905;SDS011;31619;49.008;12.106;2023-03-21T09:51:07;2.83;;;2.05;;
45905;SDS011;31619;49.008;12.106;2023-03-21T09:53:37;1.88;;;1.63;;
45905;SDS011;31619;49.008;12.106;2023-03-21T09:56:07;1.83;;;1.70;;
45905;SDS011;31619;49.008;12.106;2023-03-21T09:58:37;2.00;;;1.80;;
45905;SDS011;31619;49.008;12.106;2023-03-21T10:03:46;3.22;;;1.80;;
45905;SDS011;31619;49.008;12.106;2023-03-21T10:06:14;3.35;;;2.15;;
45905;SDS011;31619;49.008;12.106;2023-03-21T10:08:41;3.63;;;1.95;;
45905;SDS011;31619;49.008;12.106;2023-03-21T10:11:14;2.03;;;1.80;;
45905;SDS011;31619;49.008;12.106;2023-03-21T10:14:20;1.95;;;1.80;;
45905;SDS011;31619;49.008;12.106;2023-03-21T10:19:39;3.13;;;1.95;;
45905;SDS011;31619;49.008;12.106;2023-03-21T10:22:10;3.05;;;2.03;;
45905;SDS011;31619;49.008;12.106;2023-03-21T10:24:36;2.65;;;1.75;;
45905;SDS011;31619;49.008;12.106;2023-03-21T10:27:02;2.58;;;1.80;;
45905;SDS011;31619;49.008;12.106;2023-03-21T10:29:33;2.50;;;1.75;;
45905;SDS011;31619;49.008;12.106;2023-03-21T10:32:11;1.67;;;1.58;;
45905;SDS011;31619;49.008;12.106;2023-03-21T10:34:44;1.70;;;1.60;;
45905;SDS011;31619;49.008;12.106;2023-03-21T10:37:14;2.50;;;2.10;;
45905;SDS011;31619;49.008;12.106;2023-03-21T10:39:51;1.60;;;1.50;;
45905;SDS011;31619;49.008;12.106;2023-03-21T10:42:23;2.53;;;1.80;;
45905;SDS011;31619;49.008;12.106;2023-03-21T10:44:51;1.85;;;1.55;;
45905;SDS011;31619;49.008;12.106;2023-03-21T10:47:20;2.70;;;1.77;;
45905;SDS011;31619;49.008;12.106;2023-03-21T10:49:48;3.28;;;2.05;;
45905;SDS011;31619;49.008;12.106;2023-03-21T10:52:17;2.47;;;1.90;;
45905;SDS011;31619;49.008;12.106;2023-03-21T10:54:45;2.95;;;2.15;;
45905;SDS011;31619;49.008;12.106;2023-03-21T10:57:17;3.03;;;1.88;;
45905;SDS011;31619;49.008;12.106;2023-03-21T10:59:47;2.72;;;2.00;;
45905;SDS011;31619;49.008;12.106;2023-03-21T11:02:33;2.13;;;1.85;;
45905;SDS011;31619;49.008;12.106;2023-03-21T11:05:05;2.92;;;1.85;;
45905;SDS011;31619;49.008;12.106;2023-03-21T11:07:34;2.50;;;2.20;;
45905;SDS011;31619;49.008;12.106;2023-03-21T11:10:06;2.50;;;2.28;;
45905;SDS011;31619;49.008;12.106;2023-03-21T11:12:38;1.60;;;1.50;;
45905;SDS011;31619;49.008;12.106;2023-03-21T11:15:24;1.60;;;1.48;;
45905;SDS011;31619;49.008;12.106;2023-03-21T11:21:05;1.92;;;1.83;;
45905;SDS011;31619;49.008;12.106;2023-03-21T11:23:34;2.30;;;2.10;;
45905;SDS011;31619;49.008;12.106;2023-03-21T11:26:08;3.00;;;2.80;;
45905;SDS011;31619;49.008;12.106;2023-03-21T11:28:36;2.67;;;2.40;;
45905;SDS011;31619;49.008;12.106;2023-03-21T11:31:04;2.88;;;2.67;;
45905;SDS011;31619;49.008;12.106;2023-03-21T11:33:39;3.08;;;2.83;;
45905;SDS011;31619;49.008;12.106;2023-03-21T11:38:51;3.10;;;2.90;;
45905;SDS011;31619;49.008;12.106;2023-03-21T11:41:31;3.65;;;3.28;;
45905;SDS011;31619;49.008;12.106;2023-03-21T11:43:58;3.25;;;3.05;;
45905;SDS011;31619;49.008;12.106;2023-03-21T11:46:28;2.55;;;2.35;;
45905;SDS011;31619;49.008;12.106;2023-03-21T11:48:55;3.13;;;2.80;;
45905;SDS011;31619;49.008;12.106;2023-03-21T11:51:31;2.45;;;2.25;;
45905;SDS011;31619;49.008;12.106;2023-03-21T12:02:49;2.40;;;2.20;;
45905;SDS011;31619;49.008;12.106;2023-03-21T12:05:41;2.67;;;2.22;;
45905;SDS011;31619;49.008;12.106;2023-03-21T12:10:52;2.78;;;2.58;;
45905;SDS011;31619;49.008;12.106;2023-03-21T12:15:53;2.83;;;2.63;;
45905;SDS011;31619;49.008;12.106;2023-03-21T12:24:03;2.58;;;2.40;;
45905;SDS011;31619;49.008;12.106;2023-03-21T12:26:39;2.45;;;2.35;;
45905;SDS011;31619;49.008;12.106;2023-03-21T12:43:19;2.22;;;2.13;;
45905;SDS011;31619;49.008;12.106;2023-03-21T12:46:08;2.80;;;2.40;;
45905;SDS011;31619;49.008;12.106;2023-03-21T12:51:12;2.70;;;2.50;;
45905;SDS011;31619;49.008;12.106;2023-03-21T12:56:10;2.55;;;2.35;;
45905;SDS011;31619;49.008;12.106;2023-03-21T12:58:51;2.10;;;1.80;;
45905;SDS011;31619;49.008;12.106;2023-03-21T13:01:22;2.33;;;2.22;;
45905;SDS011;31619;49.008;12.106;2023-03-21T13:03:50;2.55;;;2.45;;
45905;SDS011;31619;49.008;12.106;2023-03-21T13:06:39;2.78;;;2.67;;
45905;SDS011;31619;49.008;12.106;2023-03-21T13:09:09;2.33;;;2.22;;
45905;SDS011;31619;49.008;12.106;2023-03-21T13:11:41;2.55;;;2.20;;
45905;SDS011;31619;49.008;12.106;2023-03-21T13:16:36;2.63;;;2.42;;
45905;SDS011;31619;49.008;12.106;2023-03-21T13:24:49;4.60;;;2.80;;
45905;SDS011;31619;49.008;12.106;2023-03-21T13:29:58;2.28;;;2.17;;
45905;SDS011;31619;49.008;12.106;2023-03-21T13:32:34;5.63;;;2.42;;
45905;SDS011;31619;49.008;12.106;2023-03-21T13:35:20;2.78;;;2.67;;
45905;SDS011;31619;49.008;12.106;2023-03-21T13:38:13;2.67;;;2.47;;
45905;SDS011;31619;49.008;12.106;2023-03-21T13:46:14;2.90;;;2.70;;
45905;SDS011;31619;49.008;12.106;2023-03-21T13:59:09;2.65;;;2.03;;
45905;SDS011;31619;49.008;12.106;2023-03-21T14:01:39;2.22;;;2.03;;
45905;SDS011;31619;49.008;12.106;2023-03-21T14:04:21;3.20;;;2.00;;
45905;SDS011;31619;49.008;12.106;2023-03-21T14:07:01;1.90;;;1.80;;
45905;SDS011;31619;49.008;12.106;2023-03-21T14:09:46;2.22;;;2.13;;
45905;SDS011;31619;49.008;12.106;2023-03-21T14:12:16;2.40;;;2.20;;
45905;SDS011;31619;49.008;12.106;2023-03-21T14:14:57;2.25;;;2.15;;
45905;SDS011;31619;49.008;12.106;2023-03-21T14:17:56;2.78;;;2.50;;
45905;SDS011;31619;49.008;12.106;2023-03-21T14:20:27;2.13;;;1.92;;
45905;SDS011;31619;49.008;12.106;2023-03-21T14:22:54;2.33;;;2.22;;
45905;SDS011;31619;49.008;12.106;2023-03-21T14:25:21;2.60;;;2.50;;
45905;SDS011;31619;49.008;12.106;2023-03-21T14:27:50;2.40;;;2.30;;
45905;SDS011;31619;49.008;12.106;2023-03-21T14:30:26;2.30;;;2.10;;
45905;SDS011;31619;49.008;12.106;2023-03-21T14:32:56;2.50;;;2.30;;
45905;SDS011;31619;49.008;12.106;2023-03-21T14:35:27;2.50;;;1.77;;
45905;SDS011;31619;49.008;12.106;2023-03-21T14:37:55;2.20;;;2.10;;
45905;SDS011;31619;49.008;12.106;2023-03-21T14:40:25;2.20;;;1.98;;
45905;SDS011;31619;49.008;12.106;2023-03-21T14:42:51;1.80;;;1.67;;
45905;SDS011;31619;49.008;12.106;2023-03-21T14:45:19;1.48;;;1.27;;
45905;SDS011;31619;49.008;12.106;2023-03-21T14:47:57;1.95;;;1.85;;
45905;SDS011;31619;49.008;12.106;2023-03-21T14:51:09;3.20;;;1.98;;
45905;SDS011;31619;49.008;12.106;2023-03-21T14:53:28;2.33;;;2.10;;
45905;SDS011;31619;49.008;12.106;2023-03-21T14:58:26;1.95;;;1.85;;
45905;SDS011;31619;49.008;12.106;2023-03-21T15:00:53;1.80;;;1.58;;
45905;SDS011;31619;49.008;12.106;2023-03-21T15:03:22;1.77;;;1.67;;
45905;SDS011;31619;49.008;12.106;2023-03-21T15:05:51;1.90;;;1.80;;
45905;SDS011;31619;49.008;12.106;2023-03-21T15:08:18;2.45;;;2.00;;
45905;SDS011;31619;49.008;12.106;2023-03-21T15:11:04;1.88;;;1.77;;
45905;SDS011;31619;49.008;12.106;2023-03-21T15:13:32;2.22;;;1.92;;
45905;SDS011;31619;49.008;12.106;2023-03-21T15:16:09;1.88;;;1.77;;
45905;SDS011;31619;49.008;12.106;2023-03-21T15:18:36;2.15;;;2.05;;
45905;SDS011;31619;49.008;12.106;2023-03-21T15:21:24;2.67;;;1.83;;
45905;SDS011;31619;49.008;12.106;2023-03-21T15:23:52;2.05;;;1.95;;
45905;SDS011;31619;49.008;12.106;2023-03-21T15:26:22;2.08;;;1.83;;
45905;SDS011;31619;49.008;12.106;2023-03-21T15:28:50;3.53;;;2.47;;
45905;SDS011;31619;49.008;12.106;2023-03-21T15:31:21;1.70;;;1.60;;
45905;SDS011;31619;49.008;12.106;2023-03-21T15:33:50;2.10;;;1.90;;
45905;SDS011;31619;49.008;12.106;2023-03-21T15:36:21;2.35;;;2.17;;
45905;SDS011;31619;49.008;12.106;2023-03-21T15:38:51;4.78;;;2.10;;
45905;SDS011;31619;49.008;12.106;2023-03-21T15:43:43;6.20;;;2.20;;
45905;SDS011;31619;49.008;12.106;2023-03-21T15:46:13;2.08;;;1.98;;
45905;SDS011;31619;49.008;12.106;2023-03-21T15:48:40;2.28;;;2.08;;
45905;SDS011;31619;49.008;12.106;2023-03-21T15:51:09;2.28;;;2.08;;
45905;SDS011;31619;49.008;12.106;2023-03-21T15:53:39;1.67;;;1.65;;
45905;SDS011;31619;49.008;12.106;2023-03-21T15:56:08;3.47;;;2.25;;
45905;SDS011;31619;49.008;12.106;2023-03-21T15:58:44;2.40;;;1.95;;
45905;SDS011;31619;49.008;12.106;2023-03-21T16:01:15;2.50;;;2.00;;
45905;SDS011;31619;49.008;12.106;2023-03-21T16:03:44;1.90;;;1.80;;
45905;SDS011;31619;49.008;12.106;2023-03-21T16:08:51;2.28;;;2.17;;
45905;SDS011;31619;49.008;12.106;2023-03-21T16:11:27;2.10;;;1.80;;
45905;SDS011;31619;49.008;12.106;2023-03-21T16:14:04;2.45;;;2.25;;
45905;SDS011;31619;49.008;12.106;2023-03-21T16:16:30;2.13;;;1.85;;
45905;SDS011;31619;49.008;12.106;2023-03-21T16:18:56;2.42;;;2.22;;
45905;SDS011;31619;49.008;12.106;2023-03-21T16:21:24;2.83;;;2.25;;
45905;SDS011;31619;49.008;12.106;2023-03-21T16:23:52;1.90;;;1.80;;
45905;SDS011;31619;49.008;12.106;2023-03-21T16:26:22;2.55;;;2.35;;
45905;SDS011;31619;49.008;12.106;2023-03-21T16:28:56;2.38;;;2.28;;
45905;SDS011;31619;49.008;12.106;2023-03-21T16:31:23;2.53;;;2.30;;
45905;SDS011;31619;49.008;12.106;2023-03-21T16:33:50;2.28;;;2.08;;
45905;SDS011;31619;49.008;12.106;2023-03-21T16:36:19;2.20;;;2.00;;
45905;SDS011;31619;49.008;12.106;2023-03-21T16:38:48;2.90;;;2.58;;
45905;SDS011;31619;49.008;12.106;2023-03-21T16:41:19;2.08;;;1.90;;
45905;SDS011;31619;49.008;12.106;2023-03-21T16:43:46;2.05;;;1.95;;
45905;SDS011;31619;49.008;12.106;2023-03-21T16:46:19;2.00;;;1.90;;
45905;SDS011;31619;49.008;12.106;2023-03-21T16:48:47;2.60;;;2.40;;
45905;SDS011;31619;49.008;12.106;2023-03-21T16:51:22;3.13;;;2.60;;
45905;SDS011;31619;49.008;12.106;2023-03-21T16:53:51;2.58;;;2.42;;
45905;SDS011;31619;49.008;12.106;2023-03-21T16:56:36;5.43;;;2.60;;
45905;SDS011;31619;49.008;12.106;2023-03-21T16:59:04;3.10;;;2.80;;
45905;SDS011;31619;49.008;12.106;2023-03-21T17:01:30;2.63;;;2.53;;
45905;SDS011;31619;49.008;12.106;2023-03-21T17:03:57;2.92;;;2.72;;
45905;SDS011;31619;49.008;12.106;2023-03-21T17:06:24;5.20;;;3.50;;